sensor_id;sensor_type;location;lat;lon;timestamp;P1;durP1;ratioP1;P2;durP2;ratioP2
7933;SDS011;4012;48.896;9.192;2023-02-24T00:02:22;17.73;;;13.03;;
7933;SDS011;4012;48.896;9.192;2023-02-24T00:04:47;18.67;;;13.37;;
7933;SDS011;4012;48.896;9.192;2023-02-24T00:07:17;16.77;;;12.73;;
7933;SDS011;4012;48.896;9.192;2023-02-24T00:09:44;18.93;;;12.87;;
7933;SDS011;4012;48.896;9.192;2023-02-24T00:12:11;17.70;;;12.20;;
7933;SDS011;4012;48.896;9.192;2023-02-24T00:14:38;15.93;;;12.73;;
7933;SDS011;4012;48.896;9.192;2023-02-24T00:17:06;19.60;;;13.23;;
7933;SDS011;4012;48.896;9.192;2023-02-24T00:19:32;20.37;;;14.17;;
7933;SDS011;4012;48.896;9.192;2023-02-24T00:21:58;20.97;;;12.93;;
7933;SDS011;4012;48.896;9.192;2023-02-24T00:24:25;19.33;;;13.10;;
7933;SDS011;4012;48.896;9.192;2023-02-24T00:26:52;16.23;;;12.30;;
7933;SDS011;4012;48.896;9.192;2023-02-24T00:29:19;21.10;;;12.63;;
7933;SDS011;4012;48.896;9.192;2023-02-24T00:31:44;18.23;;;12.67;;
7933;SDS011;4012;48.896;9.192;2023-02-24T00:34:11;18.90;;;13.37;;
7933;SDS011;4012;48.896;9.192;2023-02-24T00:36:37;19.70;;;13.27;;
7933;SDS011;4012;48.896;9.192;2023-02-24T00:39:04;18.60;;;13.43;;
7933;SDS011;4012;48.896;9.192;2023-02-24T00:41:38;18.63;;;13.97;;
7933;SDS011;4012;48.896;9.192;2023-02-24T00:44:08;18.47;;;13.70;;
7933;SDS011;4012;48.896;9.192;2023-02-24T00:46:42;23.20;;;13.83;;
7933;SDS011;4012;48.896;9.192;2023-02-24T00:49:13;20.97;;;13.33;;
7933;SDS011;4012;48.896;9.192;2023-02-24T00:51:45;18.60;;;13.80;;
7933;SDS011;4012;48.896;9.192;2023-02-24T00:54:13;19.10;;;14.47;;
7933;SDS011;4012;48.896;9.192;2023-02-24T00:56:44;20.37;;;12.83;;
7933;SDS011;4012;48.896;9.192;2023-02-24T00:59:11;22.37;;;12.87;;
7933;SDS011;4012;48.896;9.192;2023-02-24T01:01:39;22.73;;;13.90;;
7933;SDS011;4012;48.896;9.192;2023-02-24T01:04:05;17.07;;;12.43;;
7933;SDS011;4012;48.896;9.192;2023-02-24T01:06:35;19.27;;;13.10;;
7933;SDS011;4012;48.896;9.192;2023-02-24T01:09:10;17.93;;;14.03;;
7933;SDS011;4012;48.896;9.192;2023-02-24T01:11:37;17.07;;;12.87;;
7933;SDS011;4012;48.896;9.192;2023-02-24T01:14:26;15.93;;;11.90;;
7933;SDS011;4012;48.896;9.192;2023-02-24T01:16:54;22.73;;;13.83;;
7933;SDS011;4012;48.896;9.192;2023-02-24T01:19:22;20.97;;;12.77;;
7933;SDS011;4012;48.896;9.192;2023-02-24T01:22:05;15.83;;;11.73;;
7933;SDS011;4012;48.896;9.192;2023-02-24T01:24:34;18.17;;;13.20;;
7933;SDS011;4012;48.896;9.192;2023-02-24T01:27:02;25.43;;;12.70;;
7933;SDS011;4012;48.896;9.192;2023-02-24T01:29:28;19.50;;;12.67;;
7933;SDS011;4012;48.896;9.192;2023-02-24T01:31:54;17.40;;;12.53;;
7933;SDS011;4012;48.896;9.192;2023-02-24T01:34:22;18.60;;;12.00;;
7933;SDS011;4012;48.896;9.192;2023-02-24T01:36:52;20.50;;;13.13;;
7933;SDS011;4012;48.896;9.192;2023-02-24T01:39:18;20.03;;;12.63;;
7933;SDS011;4012;48.896;9.192;2023-02-24T01:41:45;18.03;;;12.13;;
7933;SDS011;4012;48.896;9.192;2023-02-24T01:46:44;18.17;;;12.03;;
7933;SDS011;4012;48.896;9.192;2023-02-24T01:49:12;17.70;;;11.93;;
7933;SDS011;4012;48.896;9.192;2023-02-24T01:51:44;19.90;;;12.80;;
7933;SDS011;4012;48.896;9.192;2023-02-24T01:54:17;18.87;;;12.97;;
7933;SDS011;4012;48.896;9.192;2023-02-24T01:56:46;19.57;;;12.83;;
7933;SDS011;4012;48.896;9.192;2023-02-24T01:59:15;17.10;;;12.53;;
7933;SDS011;4012;48.896;9.192;2023-02-24T02:01:42;14.10;;;11.07;;
7933;SDS011;4012;48.896;9.192;2023-02-24T02:06:55;16.17;;;11.70;;
7933;SDS011;4012;48.896;9.192;2023-02-24T02:09:22;18.53;;;13.00;;
7933;SDS011;4012;48.896;9.192;2023-02-24T02:11:48;19.33;;;13.83;;
7933;SDS011;4012;48.896;9.192;2023-02-24T02:14:16;18.67;;;12.97;;
7933;SDS011;4012;48.896;9.192;2023-02-24T02:16:48;15.37;;;11.87;;
7933;SDS011;4012;48.896;9.192;2023-02-24T02:36:22;18.17;;;12.77;;
7933;SDS011;4012;48.896;9.192;2023-02-24T02:41:26;18.63;;;12.87;;
7933;SDS011;4012;48.896;9.192;2023-02-24T02:49:51;19.50;;;12.03;;
7933;SDS011;4012;48.896;9.192;2023-02-24T02:52:32;16.73;;;11.50;;
7933;SDS011;4012;48.896;9.192;2023-02-24T02:55:27;18.73;;;11.80;;
7933;SDS011;4012;48.896;9.192;2023-02-24T02:58:00;16.53;;;12.07;;
7933;SDS011;4012;48.896;9.192;2023-02-24T03:00:30;19.67;;;12.57;;
7933;SDS011;4012;48.896;9.192;2023-02-24T03:03:00;16.33;;;12.17;;
7933;SDS011;4012;48.896;9.192;2023-02-24T03:05:33;19.07;;;11.90;;
7933;SDS011;4012;48.896;9.192;2023-02-24T03:08:10;19.37;;;12.87;;
7933;SDS011;4012;48.896;9.192;2023-02-24T03:10:39;21.90;;;12.83;;
7933;SDS011;4012;48.896;9.192;2023-02-24T03:13:08;20.07;;;12.87;;
7933;SDS011;4012;48.896;9.192;2023-02-24T03:15:37;22.33;;;12.93;;
7933;SDS011;4012;48.896;9.192;2023-02-24T03:18:10;16.20;;;12.43;;
7933;SDS011;4012;48.896;9.192;2023-02-24T03:20:51;16.07;;;11.87;;
7933;SDS011;4012;48.896;9.192;2023-02-24T03:23:29;19.07;;;12.83;;
7933;SDS011;4012;48.896;9.192;2023-02-24T03:26:00;21.60;;;12.50;;
7933;SDS011;4012;48.896;9.192;2023-02-24T03:28:44;16.93;;;13.37;;
7933;SDS011;4012;48.896;9.192;2023-02-24T03:31:41;18.27;;;12.27;;
7933;SDS011;4012;48.896;9.192;2023-02-24T03:34:15;22.27;;;12.90;;
7933;SDS011;4012;48.896;9.192;2023-02-24T03:36:46;21.07;;;12.47;;
7933;SDS011;4012;48.896;9.192;2023-02-24T03:39:11;20.07;;;12.47;;
7933;SDS011;4012;48.896;9.192;2023-02-24T03:41:51;16.20;;;12.77;;
7933;SDS011;4012;48.896;9.192;2023-02-24T03:44:21;19.10;;;12.77;;
7933;SDS011;4012;48.896;9.192;2023-02-24T03:46:49;18.97;;;13.57;;
7933;SDS011;4012;48.896;9.192;2023-02-24T03:49:15;23.07;;;13.17;;
7933;SDS011;4012;48.896;9.192;2023-02-24T03:52:32;22.43;;;13.40;;
7933;SDS011;4012;48.896;9.192;2023-02-24T04:00:10;19.13;;;13.97;;
7933;SDS011;4012;48.896;9.192;2023-02-24T04:02:59;22.27;;;14.57;;
7933;SDS011;4012;48.896;9.192;2023-02-24T04:05:31;21.73;;;14.97;;
7933;SDS011;4012;48.896;9.192;2023-02-24T04:08:04;24.23;;;15.67;;
7933;SDS011;4012;48.896;9.192;2023-02-24T04:10:35;23.83;;;16.50;;
7933;SDS011;4012;48.896;9.192;2023-02-24T04:13:24;26.43;;;17.03;;
7933;SDS011;4012;48.896;9.192;2023-02-24T04:18:41;26.93;;;17.27;;
7933;SDS011;4012;48.896;9.192;2023-02-24T04:21:13;30.20;;;16.90;;
7933;SDS011;4012;48.896;9.192;2023-02-24T04:23:41;23.57;;;15.80;;
7933;SDS011;4012;48.896;9.192;2023-02-24T04:26:08;25.87;;;16.67;;
7933;SDS011;4012;48.896;9.192;2023-02-24T04:28:38;26.67;;;17.87;;
7933;SDS011;4012;48.896;9.192;2023-02-24T04:31:06;26.93;;;17.27;;
7933;SDS011;4012;48.896;9.192;2023-02-24T04:33:42;25.87;;;17.93;;
7933;SDS011;4012;48.896;9.192;2023-02-24T04:36:09;26.47;;;18.97;;
7933;SDS011;4012;48.896;9.192;2023-02-24T04:38:37;27.60;;;18.73;;
7933;SDS011;4012;48.896;9.192;2023-02-24T04:41:03;21.77;;;17.47;;
7933;SDS011;4012;48.896;9.192;2023-02-24T04:43:29;29.83;;;17.90;;
7933;SDS011;4012;48.896;9.192;2023-02-24T04:45:54;28.77;;;19.23;;
7933;SDS011;4012;48.896;9.192;2023-02-24T04:48:20;28.40;;;18.60;;
7933;SDS011;4012;48.896;9.192;2023-02-24T04:50:46;27.43;;;18.77;;
7933;SDS011;4012;48.896;9.192;2023-02-24T04:53:18;29.13;;;18.90;;
7933;SDS011;4012;48.896;9.192;2023-02-24T04:55:51;32.23;;;20.90;;
7933;SDS011;4012;48.896;9.192;2023-02-24T04:58:20;27.90;;;18.43;;
7933;SDS011;4012;48.896;9.192;2023-02-24T05:00:49;30.27;;;19.30;;
7933;SDS011;4012;48.896;9.192;2023-02-24T05:03:22;29.70;;;18.90;;
7933;SDS011;4012;48.896;9.192;2023-02-24T05:05:55;35.63;;;20.23;;
7933;SDS011;4012;48.896;9.192;2023-02-24T05:08:24;33.77;;;21.77;;
7933;SDS011;4012;48.896;9.192;2023-02-24T05:10:51;35.33;;;21.70;;
7933;SDS011;4012;48.896;9.192;2023-02-24T05:13:19;31.73;;;20.80;;
7933;SDS011;4012;48.896;9.192;2023-02-24T05:15:50;31.77;;;20.17;;
7933;SDS011;4012;48.896;9.192;2023-02-24T05:18:15;34.97;;;20.27;;
7933;SDS011;4012;48.896;9.192;2023-02-24T05:20:42;33.17;;;20.93;;
7933;SDS011;4012;48.896;9.192;2023-02-24T05:23:29;31.37;;;19.77;;
7933;SDS011;4012;48.896;9.192;2023-02-24T05:26:08;33.37;;;20.93;;
7933;SDS011;4012;48.896;9.192;2023-02-24T05:28:38;35.73;;;20.70;;
7933;SDS011;4012;48.896;9.192;2023-02-24T05:33:35;31.70;;;19.43;;
7933;SDS011;4012;48.896;9.192;2023-02-24T05:36:05;32.60;;;19.93;;
7933;SDS011;4012;48.896;9.192;2023-02-24T05:38:33;33.63;;;20.77;;
7933;SDS011;4012;48.896;9.192;2023-02-24T05:41:05;34.47;;;21.83;;
7933;SDS011;4012;48.896;9.192;2023-02-24T05:43:32;36.23;;;22.00;;
7933;SDS011;4012;48.896;9.192;2023-02-24T05:46:02;34.37;;;21.63;;
7933;SDS011;4012;48.896;9.192;2023-02-24T05:48:29;39.53;;;23.50;;
7933;SDS011;4012;48.896;9.192;2023-02-24T05:50:59;40.63;;;22.73;;
7933;SDS011;4012;48.896;9.192;2023-02-24T05:53:26;39.43;;;21.83;;
7933;SDS011;4012;48.896;9.192;2023-02-24T05:55:51;38.93;;;22.17;;
7933;SDS011;4012;48.896;9.192;2023-02-24T05:58:17;38.83;;;22.40;;
7933;SDS011;4012;48.896;9.192;2023-02-24T06:00:42;38.27;;;23.03;;
7933;SDS011;4012;48.896;9.192;2023-02-24T06:03:10;39.00;;;22.73;;
7933;SDS011;4012;48.896;9.192;2023-02-24T06:05:51;38.53;;;21.70;;
7933;SDS011;4012;48.896;9.192;2023-02-24T06:08:17;38.10;;;21.60;;
7933;SDS011;4012;48.896;9.192;2023-02-24T06:10:43;39.53;;;22.17;;
7933;SDS011;4012;48.896;9.192;2023-02-24T06:13:11;34.03;;;20.53;;
7933;SDS011;4012;48.896;9.192;2023-02-24T06:15:37;39.40;;;21.13;;
7933;SDS011;4012;48.896;9.192;2023-02-24T06:18:02;42.20;;;22.10;;
7933;SDS011;4012;48.896;9.192;2023-02-24T06:20:28;38.93;;;20.93;;
7933;SDS011;4012;48.896;9.192;2023-02-24T06:22:56;39.50;;;20.20;;
7933;SDS011;4012;48.896;9.192;2023-02-24T06:25:23;35.30;;;20.47;;
7933;SDS011;4012;48.896;9.192;2023-02-24T06:27:53;34.73;;;20.80;;
7933;SDS011;4012;48.896;9.192;2023-02-24T06:30:22;39.40;;;20.13;;
7933;SDS011;4012;48.896;9.192;2023-02-24T06:32:50;35.93;;;19.97;;
7933;SDS011;4012;48.896;9.192;2023-02-24T06:35:18;37.17;;;19.90;;
7933;SDS011;4012;48.896;9.192;2023-02-24T06:37:44;37.37;;;20.73;;
7933;SDS011;4012;48.896;9.192;2023-02-24T06:40:10;33.50;;;19.90;;
7933;SDS011;4012;48.896;9.192;2023-02-24T06:42:40;35.47;;;19.23;;
7933;SDS011;4012;48.896;9.192;2023-02-24T06:45:09;84.03;;;45.23;;
7933;SDS011;4012;48.896;9.192;2023-02-24T06:47:36;159.77;;;84.37;;
7933;SDS011;4012;48.896;9.192;2023-02-24T06:50:02;40.77;;;22.60;;
7933;SDS011;4012;48.896;9.192;2023-02-24T06:52:30;39.93;;;20.73;;
7933;SDS011;4012;48.896;9.192;2023-02-24T06:54:56;41.17;;;20.23;;
7933;SDS011;4012;48.896;9.192;2023-02-24T06:57:22;32.10;;;19.47;;
7933;SDS011;4012;48.896;9.192;2023-02-24T06:59:48;31.90;;;19.20;;
7933;SDS011;4012;48.896;9.192;2023-02-24T07:02:15;33.67;;;17.83;;
7933;SDS011;4012;48.896;9.192;2023-02-24T07:04:41;35.70;;;20.30;;
7933;SDS011;4012;48.896;9.192;2023-02-24T07:07:10;35.13;;;19.67;;
7933;SDS011;4012;48.896;9.192;2023-02-24T07:09:38;32.93;;;19.10;;
7933;SDS011;4012;48.896;9.192;2023-02-24T07:12:05;36.37;;;20.00;;
7933;SDS011;4012;48.896;9.192;2023-02-24T07:14:33;41.87;;;20.70;;
7933;SDS011;4012;48.896;9.192;2023-02-24T07:17:00;39.70;;;20.70;;
7933;SDS011;4012;48.896;9.192;2023-02-24T07:19:28;35.77;;;18.93;;
7933;SDS011;4012;48.896;9.192;2023-02-24T07:21:59;36.07;;;19.73;;
7933;SDS011;4012;48.896;9.192;2023-02-24T07:24:28;36.60;;;19.40;;
7933;SDS011;4012;48.896;9.192;2023-02-24T07:27:15;36.30;;;19.10;;
7933;SDS011;4012;48.896;9.192;2023-02-24T07:29:47;34.93;;;18.77;;
7933;SDS011;4012;48.896;9.192;2023-02-24T07:32:14;37.03;;;19.67;;
7933;SDS011;4012;48.896;9.192;2023-02-24T07:34:41;35.43;;;18.70;;
7933;SDS011;4012;48.896;9.192;2023-02-24T07:37:08;33.00;;;18.40;;
7933;SDS011;4012;48.896;9.192;2023-02-24T07:39:35;30.73;;;17.83;;
7933;SDS011;4012;48.896;9.192;2023-02-24T07:42:02;38.70;;;17.13;;
7933;SDS011;4012;48.896;9.192;2023-02-24T07:44:28;34.00;;;18.93;;
7933;SDS011;4012;48.896;9.192;2023-02-24T07:46:54;30.93;;;18.20;;
7933;SDS011;4012;48.896;9.192;2023-02-24T07:49:21;36.10;;;19.33;;
7933;SDS011;4012;48.896;9.192;2023-02-24T07:51:52;34.00;;;18.90;;
7933;SDS011;4012;48.896;9.192;2023-02-24T07:54:22;33.47;;;19.13;;
7933;SDS011;4012;48.896;9.192;2023-02-24T07:56:49;38.80;;;20.30;;
7933;SDS011;4012;48.896;9.192;2023-02-24T07:59:23;36.40;;;18.63;;
7933;SDS011;4012;48.896;9.192;2023-02-24T08:01:51;39.00;;;19.30;;
7933;SDS011;4012;48.896;9.192;2023-02-24T08:04:20;34.53;;;20.00;;
7933;SDS011;4012;48.896;9.192;2023-02-24T08:06:47;36.37;;;20.00;;
7933;SDS011;4012;48.896;9.192;2023-02-24T08:09:19;39.33;;;22.33;;
7933;SDS011;4012;48.896;9.192;2023-02-24T08:12:08;41.10;;;20.43;;
7933;SDS011;4012;48.896;9.192;2023-02-24T08:14:35;40.63;;;20.27;;
7933;SDS011;4012;48.896;9.192;2023-02-24T08:17:08;38.33;;;19.97;;
7933;SDS011;4012;48.896;9.192;2023-02-24T08:19:35;36.60;;;20.50;;
7933;SDS011;4012;48.896;9.192;2023-02-24T08:22:07;37.80;;;20.17;;
7933;SDS011;4012;48.896;9.192;2023-02-24T08:24:52;37.00;;;18.77;;
7933;SDS011;4012;48.896;9.192;2023-02-24T08:27:24;44.60;;;24.67;;
7933;SDS011;4012;48.896;9.192;2023-02-24T08:29:54;37.63;;;20.40;;
7933;SDS011;4012;48.896;9.192;2023-02-24T08:34:58;40.60;;;20.90;;
7933;SDS011;4012;48.896;9.192;2023-02-24T08:37:32;40.00;;;20.37;;
7933;SDS011;4012;48.896;9.192;2023-02-24T08:40:04;35.50;;;19.10;;
7933;SDS011;4012;48.896;9.192;2023-02-24T08:42:55;41.03;;;18.47;;
7933;SDS011;4012;48.896;9.192;2023-02-24T08:45:48;33.70;;;18.80;;
7933;SDS011;4012;48.896;9.192;2023-02-24T08:48:22;35.10;;;18.63;;
7933;SDS011;4012;48.896;9.192;2023-02-24T08:51:12;38.50;;;19.17;;
7933;SDS011;4012;48.896;9.192;2023-02-24T08:53:42;37.53;;;18.57;;
7933;SDS011;4012;48.896;9.192;2023-02-24T08:56:10;39.03;;;21.63;;
7933;SDS011;4012;48.896;9.192;2023-02-24T08:58:41;35.10;;;17.93;;
7933;SDS011;4012;48.896;9.192;2023-02-24T09:01:16;38.17;;;18.80;;
7933;SDS011;4012;48.896;9.192;2023-02-24T09:03:44;36.30;;;19.37;;
7933;SDS011;4012;48.896;9.192;2023-02-24T09:06:11;37.13;;;18.57;;
7933;SDS011;4012;48.896;9.192;2023-02-24T09:08:41;35.73;;;18.60;;
7933;SDS011;4012;48.896;9.192;2023-02-24T09:11:09;40.97;;;20.00;;
7933;SDS011;4012;48.896;9.192;2023-02-24T09:13:39;33.17;;;17.30;;
7933;SDS011;4012;48.896;9.192;2023-02-24T09:16:18;32.70;;;17.53;;
7933;SDS011;4012;48.896;9.192;2023-02-24T09:18:47;35.13;;;17.90;;
7933;SDS011;4012;48.896;9.192;2023-02-24T09:21:34;38.67;;;18.03;;
7933;SDS011;4012;48.896;9.192;2023-02-24T09:24:20;33.63;;;17.23;;
7933;SDS011;4012;48.896;9.192;2023-02-24T09:26:53;36.80;;;17.83;;
7933;SDS011;4012;48.896;9.192;2023-02-24T09:29:23;33.07;;;17.43;;
7933;SDS011;4012;48.896;9.192;2023-02-24T09:32:02;31.23;;;15.33;;
7933;SDS011;4012;48.896;9.192;2023-02-24T09:34:33;34.47;;;17.70;;
7933;SDS011;4012;48.896;9.192;2023-02-24T09:36:59;32.00;;;16.70;;
7933;SDS011;4012;48.896;9.192;2023-02-24T09:39:31;31.23;;;15.27;;
7933;SDS011;4012;48.896;9.192;2023-02-24T09:42:18;30.77;;;16.47;;
7933;SDS011;4012;48.896;9.192;2023-02-24T09:44:55;25.53;;;14.13;;
7933;SDS011;4012;48.896;9.192;2023-02-24T09:47:39;25.97;;;14.10;;
7933;SDS011;4012;48.896;9.192;2023-02-24T09:52:45;25.07;;;12.70;;
7933;SDS011;4012;48.896;9.192;2023-02-24T10:03:44;24.43;;;13.23;;
7933;SDS011;4012;48.896;9.192;2023-02-24T10:06:34;26.87;;;15.53;;
7933;SDS011;4012;48.896;9.192;2023-02-24T10:09:13;31.93;;;16.63;;
7933;SDS011;4012;48.896;9.192;2023-02-24T10:11:59;29.03;;;15.93;;
7933;SDS011;4012;48.896;9.192;2023-02-24T10:14:48;34.77;;;17.40;;
7933;SDS011;4012;48.896;9.192;2023-02-24T10:17:48;31.77;;;16.17;;
7933;SDS011;4012;48.896;9.192;2023-02-24T10:20:22;32.67;;;18.37;;
7933;SDS011;4012;48.896;9.192;2023-02-24T10:25:54;34.93;;;17.50;;
7933;SDS011;4012;48.896;9.192;2023-02-24T10:28:38;41.30;;;20.33;;
7933;SDS011;4012;48.896;9.192;2023-02-24T10:31:10;39.23;;;17.73;;
7933;SDS011;4012;48.896;9.192;2023-02-24T10:33:56;38.47;;;17.07;;
7933;SDS011;4012;48.896;9.192;2023-02-24T10:36:25;42.90;;;20.53;;
7933;SDS011;4012;48.896;9.192;2023-02-24T10:42:03;36.87;;;16.50;;
7933;SDS011;4012;48.896;9.192;2023-02-24T10:44:48;40.43;;;19.27;;
7933;SDS011;4012;48.896;9.192;2023-02-24T10:47:18;36.03;;;17.57;;
7933;SDS011;4012;48.896;9.192;2023-02-24T10:49:56;44.80;;;17.97;;
7933;SDS011;4012;48.896;9.192;2023-02-24T10:55:08;43.50;;;19.37;;
7933;SDS011;4012;48.896;9.192;2023-02-24T10:57:53;40.63;;;19.13;;
7933;SDS011;4012;48.896;9.192;2023-02-24T11:00:37;37.23;;;17.63;;
7933;SDS011;4012;48.896;9.192;2023-02-24T11:03:24;36.03;;;18.20;;
7933;SDS011;4012;48.896;9.192;2023-02-24T11:06:00;39.33;;;17.07;;
7933;SDS011;4012;48.896;9.192;2023-02-24T11:08:27;39.80;;;19.40;;
7933;SDS011;4012;48.896;9.192;2023-02-24T11:11:14;33.00;;;16.50;;
7933;SDS011;4012;48.896;9.192;2023-02-24T11:13:52;38.03;;;18.40;;
7933;SDS011;4012;48.896;9.192;2023-02-24T11:19:34;42.73;;;21.13;;
7933;SDS011;4012;48.896;9.192;2023-02-24T11:22:21;43.13;;;19.13;;
7933;SDS011;4012;48.896;9.192;2023-02-24T11:24:51;36.07;;;17.53;;
7933;SDS011;4012;48.896;9.192;2023-02-24T11:27:17;35.83;;;18.33;;
7933;SDS011;4012;48.896;9.192;2023-02-24T11:38:35;35.53;;;16.80;;
7933;SDS011;4012;48.896;9.192;2023-02-24T11:44:02;37.33;;;19.33;;
7933;SDS011;4012;48.896;9.192;2023-02-24T11:46:53;37.80;;;18.63;;
7933;SDS011;4012;48.896;9.192;2023-02-24T11:51:50;33.07;;;17.20;;
7933;SDS011;4012;48.896;9.192;2023-02-24T11:54:18;35.70;;;18.40;;
7933;SDS011;4012;48.896;9.192;2023-02-24T11:56:46;31.70;;;16.53;;
7933;SDS011;4012;48.896;9.192;2023-02-24T12:04:53;34.70;;;17.30;;
7933;SDS011;4012;48.896;9.192;2023-02-24T12:07:49;38.43;;;20.07;;
7933;SDS011;4012;48.896;9.192;2023-02-24T12:10:28;33.90;;;18.30;;
7933;SDS011;4012;48.896;9.192;2023-02-24T12:13:11;36.17;;;16.87;;
7933;SDS011;4012;48.896;9.192;2023-02-24T12:15:49;35.83;;;17.03;;
7933;SDS011;4012;48.896;9.192;2023-02-24T12:18:37;46.40;;;18.80;;
7933;SDS011;4012;48.896;9.192;2023-02-24T12:21:08;40.13;;;18.07;;
7933;SDS011;4012;48.896;9.192;2023-02-24T12:23:47;40.20;;;19.60;;
7933;SDS011;4012;48.896;9.192;2023-02-24T12:26:18;37.20;;;19.27;;
7933;SDS011;4012;48.896;9.192;2023-02-24T12:31:36;38.17;;;17.60;;
7933;SDS011;4012;48.896;9.192;2023-02-24T12:39:51;40.03;;;17.93;;
7933;SDS011;4012;48.896;9.192;2023-02-24T12:42:41;39.80;;;18.33;;
7933;SDS011;4012;48.896;9.192;2023-02-24T12:45:42;36.90;;;16.70;;
7933;SDS011;4012;48.896;9.192;2023-02-24T12:58:48;33.83;;;16.57;;
7933;SDS011;4012;48.896;9.192;2023-02-24T13:09:42;31.23;;;14.60;;
7933;SDS011;4012;48.896;9.192;2023-02-24T13:12:37;30.40;;;15.43;;
7933;SDS011;4012;48.896;9.192;2023-02-24T13:15:22;27.73;;;13.87;;
7933;SDS011;4012;48.896;9.192;2023-02-24T13:17:50;30.30;;;14.63;;
7933;SDS011;4012;48.896;9.192;2023-02-24T13:20:59;29.80;;;14.97;;
7933;SDS011;4012;48.896;9.192;2023-02-24T13:23:19;24.50;;;14.07;;
7933;SDS011;4012;48.896;9.192;2023-02-24T13:25:49;26.27;;;15.40;;
7933;SDS011;4012;48.896;9.192;2023-02-24T13:28:29;25.80;;;13.33;;
7933;SDS011;4012;48.896;9.192;2023-02-24T13:33:37;27.57;;;13.73;;
7933;SDS011;4012;48.896;9.192;2023-02-24T13:36:15;19.87;;;11.57;;
7933;SDS011;4012;48.896;9.192;2023-02-24T13:44:01;24.43;;;12.03;;
7933;SDS011;4012;48.896;9.192;2023-02-24T13:46:48;25.67;;;12.93;;
7933;SDS011;4012;48.896;9.192;2023-02-24T13:52:24;23.13;;;13.07;;
7933;SDS011;4012;48.896;9.192;2023-02-24T13:55:10;24.37;;;12.93;;
7933;SDS011;4012;48.896;9.192;2023-02-24T14:02:59;23.17;;;11.97;;
7933;SDS011;4012;48.896;9.192;2023-02-24T14:05:32;21.40;;;12.17;;
7933;SDS011;4012;48.896;9.192;2023-02-24T14:07:59;27.40;;;12.67;;
7933;SDS011;4012;48.896;9.192;2023-02-24T14:10:27;27.73;;;13.67;;
7933;SDS011;4012;48.896;9.192;2023-02-24T14:15:31;25.23;;;13.10;;
7933;SDS011;4012;48.896;9.192;2023-02-24T14:17:59;22.73;;;13.10;;
7933;SDS011;4012;48.896;9.192;2023-02-24T14:20:33;23.20;;;12.77;;
7933;SDS011;4012;48.896;9.192;2023-02-24T14:23:12;21.53;;;12.63;;
7933;SDS011;4012;48.896;9.192;2023-02-24T14:25:47;21.03;;;13.50;;
7933;SDS011;4012;48.896;9.192;2023-02-24T14:28:45;23.60;;;12.77;;
7933;SDS011;4012;48.896;9.192;2023-02-24T14:31:17;26.30;;;12.80;;
7933;SDS011;4012;48.896;9.192;2023-02-24T14:33:47;23.93;;;12.73;;
7933;SDS011;4012;48.896;9.192;2023-02-24T14:36:21;23.33;;;13.33;;
7933;SDS011;4012;48.896;9.192;2023-02-24T14:39:11;22.60;;;12.10;;
7933;SDS011;4012;48.896;9.192;2023-02-24T14:41:41;24.40;;;13.67;;
7933;SDS011;4012;48.896;9.192;2023-02-24T14:44:31;19.77;;;12.60;;
7933;SDS011;4012;48.896;9.192;2023-02-24T14:46:57;22.07;;;13.20;;
7933;SDS011;4012;48.896;9.192;2023-02-24T14:49:27;20.73;;;11.70;;
7933;SDS011;4012;48.896;9.192;2023-02-24T14:51:56;22.27;;;11.87;;
7933;SDS011;4012;48.896;9.192;2023-02-24T14:54:45;23.23;;;12.40;;
7933;SDS011;4012;48.896;9.192;2023-02-24T14:57:16;26.80;;;13.13;;
7933;SDS011;4012;48.896;9.192;2023-02-24T14:59:49;20.30;;;11.27;;
7933;SDS011;4012;48.896;9.192;2023-02-24T15:02:19;21.27;;;11.70;;
7933;SDS011;4012;48.896;9.192;2023-02-24T15:04:51;23.10;;;12.50;;
7933;SDS011;4012;48.896;9.192;2023-02-24T15:07:19;19.13;;;11.13;;
7933;SDS011;4012;48.896;9.192;2023-02-24T15:09:50;15.97;;;10.47;;
7933;SDS011;4012;48.896;9.192;2023-02-24T15:15:19;17.63;;;10.13;;
7933;SDS011;4012;48.896;9.192;2023-02-24T15:18:09;14.97;;;9.73;;
7933;SDS011;4012;48.896;9.192;2023-02-24T15:20:48;21.17;;;9.07;;
7933;SDS011;4012;48.896;9.192;2023-02-24T15:23:29;21.83;;;11.03;;
7933;SDS011;4012;48.896;9.192;2023-02-24T15:26:04;17.43;;;10.80;;
7933;SDS011;4012;48.896;9.192;2023-02-24T15:28:33;21.70;;;12.03;;
7933;SDS011;4012;48.896;9.192;2023-02-24T15:31:04;19.43;;;11.03;;
7933;SDS011;4012;48.896;9.192;2023-02-24T15:33:42;17.17;;;9.63;;
7933;SDS011;4012;48.896;9.192;2023-02-24T15:36:20;19.53;;;10.67;;
7933;SDS011;4012;48.896;9.192;2023-02-24T15:38:50;17.80;;;11.07;;
7933;SDS011;4012;48.896;9.192;2023-02-24T15:41:17;20.97;;;11.17;;
7933;SDS011;4012;48.896;9.192;2023-02-24T15:43:45;16.60;;;10.13;;
7933;SDS011;4012;48.896;9.192;2023-02-24T15:48:43;19.30;;;10.87;;
7933;SDS011;4012;48.896;9.192;2023-02-24T15:51:17;15.53;;;10.13;;
7933;SDS011;4012;48.896;9.192;2023-02-24T15:53:44;17.50;;;11.10;;
7933;SDS011;4012;48.896;9.192;2023-02-24T15:56:09;19.07;;;11.37;;
7933;SDS011;4012;48.896;9.192;2023-02-24T15:58:35;19.67;;;11.00;;
7933;SDS011;4012;48.896;9.192;2023-02-24T16:01:09;23.70;;;10.87;;
7933;SDS011;4012;48.896;9.192;2023-02-24T16:03:36;18.87;;;11.47;;
7933;SDS011;4012;48.896;9.192;2023-02-24T16:06:02;19.67;;;11.50;;
7933;SDS011;4012;48.896;9.192;2023-02-24T16:08:28;24.20;;;12.67;;
7933;SDS011;4012;48.896;9.192;2023-02-24T16:10:54;24.70;;;12.57;;
7933;SDS011;4012;48.896;9.192;2023-02-24T16:13:20;26.07;;;12.37;;
7933;SDS011;4012;48.896;9.192;2023-02-24T16:15:48;19.43;;;12.97;;
7933;SDS011;4012;48.896;9.192;2023-02-24T16:18:21;21.87;;;11.77;;
7933;SDS011;4012;48.896;9.192;2023-02-24T16:20:49;18.70;;;11.17;;
7933;SDS011;4012;48.896;9.192;2023-02-24T16:23:19;17.73;;;10.20;;
7933;SDS011;4012;48.896;9.192;2023-02-24T16:25:46;23.63;;;12.50;;
7933;SDS011;4012;48.896;9.192;2023-02-24T16:28:17;21.70;;;12.67;;
7933;SDS011;4012;48.896;9.192;2023-02-24T16:30:47;21.40;;;11.93;;
7933;SDS011;4012;48.896;9.192;2023-02-24T16:33:15;17.50;;;11.77;;
7933;SDS011;4012;48.896;9.192;2023-02-24T16:35:42;19.20;;;11.30;;
7933;SDS011;4012;48.896;9.192;2023-02-24T16:38:10;23.10;;;12.63;;
7933;SDS011;4012;48.896;9.192;2023-02-24T16:40:39;19.57;;;12.37;;
7933;SDS011;4012;48.896;9.192;2023-02-24T16:43:12;20.50;;;11.57;;
7933;SDS011;4012;48.896;9.192;2023-02-24T16:45:38;21.60;;;12.27;;
7933;SDS011;4012;48.896;9.192;2023-02-24T16:48:21;18.87;;;10.47;;
7933;SDS011;4012;48.896;9.192;2023-02-24T16:50:49;20.17;;;11.43;;
7933;SDS011;4012;48.896;9.192;2023-02-24T16:53:16;18.40;;;11.37;;
7933;SDS011;4012;48.896;9.192;2023-02-24T16:55:46;16.90;;;10.47;;
7933;SDS011;4012;48.896;9.192;2023-02-24T16:58:13;20.93;;;11.43;;
7933;SDS011;4012;48.896;9.192;2023-02-24T17:00:40;16.50;;;9.70;;
7933;SDS011;4012;48.896;9.192;2023-02-24T17:03:13;16.07;;;10.87;;
7933;SDS011;4012;48.896;9.192;2023-02-24T17:06:05;14.87;;;8.97;;
7933;SDS011;4012;48.896;9.192;2023-02-24T17:08:31;19.30;;;11.70;;
7933;SDS011;4012;48.896;9.192;2023-02-24T17:10:56;15.33;;;9.93;;
7933;SDS011;4012;48.896;9.192;2023-02-24T17:13:22;15.70;;;9.07;;
7933;SDS011;4012;48.896;9.192;2023-02-24T17:15:49;18.67;;;9.53;;
7933;SDS011;4012;48.896;9.192;2023-02-24T17:18:19;15.07;;;9.53;;
7933;SDS011;4012;48.896;9.192;2023-02-24T17:20:46;13.97;;;8.20;;
7933;SDS011;4012;48.896;9.192;2023-02-24T17:23:12;17.37;;;9.90;;
7933;SDS011;4012;48.896;9.192;2023-02-24T17:25:37;13.93;;;9.20;;
7933;SDS011;4012;48.896;9.192;2023-02-24T17:28:03;16.17;;;9.57;;
7933;SDS011;4012;48.896;9.192;2023-02-24T17:30:30;14.53;;;9.30;;
7933;SDS011;4012;48.896;9.192;2023-02-24T17:32:57;24.37;;;9.53;;
7933;SDS011;4012;48.896;9.192;2023-02-24T17:35:24;25.20;;;11.33;;
7933;SDS011;4012;48.896;9.192;2023-02-24T17:37:50;17.40;;;9.90;;